createdAt,value
2022-12-22T00:01:14.784Z,1.70
2022-12-22T00:03:59.916Z,1.53
2022-12-22T00:06:45.130Z,1.50
2022-12-22T00:09:29.859Z,1.13
2022-12-22T00:12:14.996Z,1.80
2022-12-22T00:15:01.347Z,1.20
2022-12-22T00:17:47.789Z,1.37
2022-12-22T00:20:38.729Z,1.40
2022-12-22T00:23:24.232Z,1.43
2022-12-22T00:26:09.295Z,1.40
2022-12-22T00:28:55.192Z,1.57
2022-12-22T00:31:40.407Z,1.40
2022-12-22T00:34:33.193Z,1.13
2022-12-22T00:37:18.486Z,1.60
2022-12-22T00:40:03.444Z,1.53
2022-12-22T00:42:48.741Z,1.40
2022-12-22T00:45:34.031Z,1.30
2022-12-22T00:48:19.809Z,0.90
2022-12-22T00:51:05.094Z,1.30
2022-12-22T00:53:50.510Z,1.50
2022-12-22T00:56:35.637Z,1.43
2022-12-22T00:59:20.836Z,1.30
2022-12-22T01:02:05.728Z,1.37
2022-12-22T01:04:50.721Z,1.07
2022-12-22T01:07:37.529Z,0.93
2022-12-22T01:10:22.623Z,1.47
2022-12-22T01:13:07.588Z,0.70
2022-12-22T01:15:52.411Z,0.80
2022-12-22T01:18:37.631Z,1.10
2022-12-22T01:21:22.911Z,1.50
2022-12-22T01:24:07.692Z,1.37
2022-12-22T01:26:52.842Z,1.77
2022-12-22T01:29:37.583Z,2.03
2022-12-22T01:32:23.052Z,5.23
2022-12-22T01:35:08.084Z,7.33
2022-12-22T01:37:52.840Z,5.33
2022-12-22T01:40:41.394Z,2.90
2022-12-22T01:43:45.523Z,3.23
2022-12-22T01:46:46.661Z,1.63
2022-12-22T01:49:39.624Z,1.40
2022-12-22T01:52:26.636Z,2.40
2022-12-22T01:55:15.105Z,2.03
2022-12-22T01:58:00.549Z,2.40
2022-12-22T02:00:45.936Z,1.23
2022-12-22T02:03:35.664Z,0.70
2022-12-22T02:06:36.138Z,1.40
2022-12-22T02:09:45.622Z,0.70
2022-12-22T02:12:43.728Z,0.70
2022-12-22T02:15:34.788Z,0.60
2022-12-22T02:18:29.292Z,0.60
2022-12-22T02:21:20.206Z,0.80
2022-12-22T02:24:27.177Z,0.60
2022-12-22T02:27:15.026Z,0.67
2022-12-22T02:30:23.578Z,0.63
2022-12-22T02:33:10.027Z,0.70
2022-12-22T02:36:08.317Z,0.90
2022-12-22T02:38:56.075Z,0.60
2022-12-22T02:41:47.230Z,0.80
2022-12-22T02:44:46.752Z,0.67
2022-12-22T02:47:57.656Z,0.80
2022-12-22T02:50:52.653Z,0.60
2022-12-22T02:53:39.192Z,0.60
2022-12-22T02:56:28.996Z,0.60
2022-12-22T02:59:15.160Z,0.60
2022-12-22T03:02:02.566Z,0.70
2022-12-22T03:04:48.108Z,0.70
2022-12-22T03:07:33.393Z,0.60
2022-12-22T03:10:18.454Z,0.60
2022-12-22T03:13:03.388Z,0.70
2022-12-22T03:15:48.240Z,0.67
2022-12-22T03:18:33.299Z,0.60
2022-12-22T03:21:18.745Z,0.70
2022-12-22T03:24:04.131Z,0.70
2022-12-22T03:26:30.726Z,0.60
2022-12-22T03:28:57.123Z,0.90
2022-12-22T03:31:23.638Z,0.70
2022-12-22T03:33:50.259Z,0.90
2022-12-22T03:36:16.809Z,0.70
2022-12-22T03:38:43.143Z,0.60
2022-12-22T03:41:29.520Z,0.60
2022-12-22T03:44:14.406Z,0.60
2022-12-22T03:46:40.889Z,0.60
2022-12-22T03:49:09.981Z,0.70
2022-12-22T03:51:47.761Z,0.60
2022-12-22T03:54:19.936Z,0.77
2022-12-22T03:56:47.191Z,0.60
2022-12-22T03:59:14.173Z,0.50
2022-12-22T04:01:44.122Z,0.60
2022-12-22T04:04:12.045Z,0.50
2022-12-22T04:06:38.979Z,0.70
2022-12-22T04:09:05.458Z,0.57
2022-12-22T04:11:50.420Z,0.40
2022-12-22T04:14:17.979Z,0.50
2022-12-22T04:16:44.609Z,0.50
2022-12-22T04:19:11.067Z,0.70
2022-12-22T04:21:38.229Z,0.60
2022-12-22T04:24:05.048Z,0.60
2022-12-22T04:26:32.110Z,0.50
2022-12-22T04:28:58.535Z,0.60
2022-12-22T04:31:24.991Z,0.50
2022-12-22T04:33:51.542Z,0.50
2022-12-22T04:36:18.042Z,0.50
2022-12-22T04:38:44.833Z,0.60
2022-12-22T04:41:11.659Z,0.73
2022-12-22T04:43:38.508Z,0.80
2022-12-22T04:46:05.481Z,0.90
2022-12-22T04:48:32.559Z,0.53
2022-12-22T04:51:00.323Z,0.60
2022-12-22T04:53:28.489Z,0.60
2022-12-22T04:55:58.864Z,0.50
2022-12-22T04:58:25.969Z,0.57
2022-12-22T05:00:52.443Z,0.50
2022-12-22T05:03:19.291Z,0.60
2022-12-22T05:05:45.861Z,0.60
2022-12-22T05:08:12.293Z,0.60
2022-12-22T05:10:38.878Z,0.80
2022-12-22T05:13:05.329Z,0.70
2022-12-22T05:15:34.060Z,0.70
2022-12-22T05:18:01.341Z,0.90
2022-12-22T05:20:28.355Z,0.70
2022-12-22T05:22:55.377Z,0.80
2022-12-22T05:25:21.888Z,0.70
2022-12-22T05:27:49.685Z,0.63
2022-12-22T05:30:17.517Z,0.90
2022-12-22T05:32:43.966Z,0.63
2022-12-22T05:35:10.981Z,0.70
2022-12-22T05:37:37.464Z,0.70
2022-12-22T05:40:04.769Z,0.80
2022-12-22T05:42:37.282Z,0.70
2022-12-22T05:45:09.720Z,0.90
2022-12-22T05:47:36.366Z,0.90
2022-12-22T05:50:02.779Z,0.80
2022-12-22T05:52:29.296Z,1.10
2022-12-22T05:54:55.793Z,1.27
2022-12-22T05:57:22.811Z,0.63
2022-12-22T05:59:49.242Z,0.70
2022-12-22T06:02:16.218Z,0.70
2022-12-22T06:04:42.811Z,1.37
2022-12-22T06:07:09.535Z,1.20
2022-12-22T06:09:36.050Z,1.33
2022-12-22T06:12:02.726Z,1.17
2022-12-22T06:14:29.175Z,0.83
2022-12-22T06:16:55.545Z,1.00
2022-12-22T06:19:21.945Z,1.63
2022-12-22T06:21:48.281Z,2.10
2022-12-22T06:24:14.678Z,1.70
2022-12-22T06:26:41.053Z,0.90
2022-12-22T06:29:07.600Z,2.33
2022-12-22T06:31:34.029Z,2.07
2022-12-22T06:34:00.458Z,1.90
2022-12-22T06:36:26.901Z,1.70
2022-12-22T06:38:53.317Z,1.43
2022-12-22T06:41:39.785Z,0.80
2022-12-22T06:44:06.369Z,1.10
2022-12-22T06:46:32.882Z,0.90
2022-12-22T06:48:59.333Z,0.83
2022-12-22T06:51:25.757Z,0.90
2022-12-22T06:53:52.133Z,1.30
2022-12-22T06:56:18.534Z,0.80
2022-12-22T06:58:44.984Z,1.00
2022-12-22T07:01:11.409Z,0.60
2022-12-22T07:03:37.845Z,0.70
2022-12-22T07:06:04.679Z,0.70
2022-12-22T07:08:31.115Z,0.60
2022-12-22T07:11:00.663Z,0.60
2022-12-22T07:13:34.004Z,0.73
2022-12-22T07:16:05.452Z,0.73
2022-12-22T07:18:34.252Z,0.60
2022-12-22T07:21:02.678Z,0.70
2022-12-22T07:23:30.064Z,1.00
2022-12-22T07:25:56.687Z,1.33
2022-12-22T07:28:23.764Z,0.80
2022-12-22T07:30:50.662Z,0.70
2022-12-22T07:33:17.534Z,3.20
2022-12-22T07:35:44.126Z,7.00
2022-12-22T07:38:10.712Z,2.47
2022-12-22T07:40:41.829Z,1.40
2022-12-22T07:43:09.040Z,5.30
2022-12-22T07:45:36.436Z,2.87
2022-12-22T07:48:27.043Z,3.93
2022-12-22T07:50:55.175Z,2.67
2022-12-22T07:53:21.705Z,2.30
2022-12-22T07:55:48.107Z,3.67
2022-12-22T07:58:14.608Z,5.33
2022-12-22T08:00:41.043Z,5.10
2022-12-22T08:03:07.512Z,5.80
2022-12-22T08:05:33.979Z,6.47
2022-12-22T08:08:00.391Z,6.53
2022-12-22T08:10:26.818Z,6.03
2022-12-22T08:12:53.269Z,4.90
2022-12-22T08:15:19.729Z,3.43
2022-12-22T08:17:46.165Z,2.40
2022-12-22T08:20:12.655Z,1.90
2022-12-22T08:22:39.136Z,1.70
2022-12-22T08:25:05.825Z,1.80
2022-12-22T08:27:42.445Z,1.83
2022-12-22T08:30:10.003Z,2.43
2022-12-22T08:32:38.385Z,2.80
2022-12-22T08:35:05.943Z,1.90
2022-12-22T08:37:40.973Z,2.47
2022-12-22T08:40:20.413Z,2.60
2022-12-22T08:42:48.382Z,2.90
2022-12-22T08:45:14.917Z,2.50
2022-12-22T08:47:41.403Z,2.03
2022-12-22T08:50:08.619Z,1.80
2022-12-22T08:52:35.136Z,2.10
2022-12-22T08:55:01.582Z,2.73
2022-12-22T08:57:28.387Z,2.67
2022-12-22T08:59:55.015Z,2.40
2022-12-22T09:02:22.244Z,2.10
2022-12-22T09:04:48.777Z,3.00
2022-12-22T09:07:15.891Z,2.70
2022-12-22T09:09:42.336Z,2.70
2022-12-22T09:12:08.794Z,2.70
2022-12-22T09:14:35.231Z,2.53
2022-12-22T09:17:01.715Z,2.70
2022-12-22T09:19:28.194Z,2.80
2022-12-22T09:21:55.011Z,3.10
2022-12-22T09:24:21.459Z,2.83
2022-12-22T09:26:47.879Z,3.57
2022-12-22T09:29:15.444Z,3.37
2022-12-22T09:31:43.140Z,7.40
2022-12-22T09:34:15.317Z,6.30
2022-12-22T09:36:44.884Z,7.23
2022-12-22T09:39:11.670Z,4.50
2022-12-22T09:41:59.237Z,3.27
2022-12-22T09:44:40.236Z,3.00
2022-12-22T09:47:17.619Z,2.43
2022-12-22T09:49:44.412Z,2.40
2022-12-22T09:52:23.828Z,2.50
2022-12-22T09:54:50.389Z,2.20
2022-12-22T09:57:16.800Z,2.00
2022-12-22T09:59:43.148Z,1.50
2022-12-22T10:02:31.694Z,1.50
2022-12-22T10:05:10.365Z,1.57
2022-12-22T10:07:40.026Z,2.17
2022-12-22T10:10:28.245Z,2.17
2022-12-22T10:12:56.764Z,2.40
2022-12-22T10:15:23.879Z,4.20
2022-12-22T10:17:54.619Z,4.80
2022-12-22T10:20:21.002Z,5.77
2022-12-22T10:22:53.209Z,6.07
2022-12-22T10:25:52.281Z,7.60
2022-12-22T10:28:27.753Z,8.07
2022-12-22T10:31:19.401Z,8.43
2022-12-22T10:33:48.381Z,7.30
2022-12-22T10:36:24.232Z,7.03
2022-12-22T10:38:56.701Z,7.17
2022-12-22T10:41:26.788Z,7.07
2022-12-22T10:44:02.406Z,7.93
2022-12-22T10:46:37.139Z,9.00
2022-12-22T10:49:20.418Z,7.10
2022-12-22T10:51:56.627Z,8.20
2022-12-22T10:54:36.726Z,8.23
2022-12-22T10:57:15.881Z,7.67
2022-12-22T10:59:56.677Z,7.60
2022-12-22T11:02:28.073Z,7.80
2022-12-22T11:05:01.683Z,8.57
2022-12-22T11:07:31.825Z,8.23
2022-12-22T11:09:58.365Z,8.60
2022-12-22T11:12:57.441Z,8.23
2022-12-22T11:15:32.912Z,9.17
2022-12-22T11:18:23.604Z,9.00
2022-12-22T11:21:08.498Z,8.50
2022-12-22T11:23:37.688Z,8.63
2022-12-22T11:26:11.653Z,8.93
2022-12-22T11:29:14.408Z,8.13
2022-12-22T11:32:07.273Z,8.70
2022-12-22T11:34:36.274Z,8.83
2022-12-22T11:37:31.407Z,8.63
2022-12-22T11:40:18.776Z,7.50
2022-12-22T11:43:18.665Z,7.97
2022-12-22T11:46:03.500Z,7.20
2022-12-22T11:48:52.996Z,7.97
2022-12-22T11:51:56.910Z,7.97
2022-12-22T11:54:54.554Z,7.57
2022-12-22T11:57:45.217Z,7.97
2022-12-22T12:00:14.101Z,8.70
2022-12-22T12:02:58.001Z,8.03
2022-12-22T12:05:44.691Z,7.20
2022-12-22T12:08:38.746Z,7.30
2022-12-22T12:11:23.224Z,6.47
2022-12-22T12:14:00.288Z,6.43
2022-12-22T12:16:39.066Z,6.80
2022-12-22T12:19:44.373Z,7.23
2022-12-22T12:22:36.531Z,6.47
2022-12-22T12:25:28.038Z,7.57
2022-12-22T12:28:15.499Z,6.70
2022-12-22T12:30:56.767Z,6.30
2022-12-22T12:33:50.294Z,7.10
2022-12-22T12:36:35.536Z,7.40
2022-12-22T12:39:27.930Z,5.57
2022-12-22T12:42:15.507Z,6.23
2022-12-22T12:44:42.224Z,5.90
2022-12-22T12:47:27.966Z,5.70
2022-12-22T12:50:03.359Z,5.87
2022-12-22T12:52:38.690Z,6.10
2022-12-22T12:55:40.288Z,6.03
2022-12-22T12:58:11.351Z,6.30
2022-12-22T13:00:43.116Z,6.23
2022-12-22T13:04:01.185Z,6.70
2022-12-22T13:06:49.781Z,6.20
2022-12-22T13:09:50.717Z,5.33
2022-12-22T13:12:38.822Z,5.60
2022-12-22T13:15:32.540Z,5.10
2022-12-22T13:18:00.454Z,5.30
2022-12-22T13:20:32.634Z,5.27
2022-12-22T13:23:01.877Z,5.87
2022-12-22T13:25:55.754Z,6.20
2022-12-22T13:28:23.874Z,5.17
2022-12-22T13:30:57.782Z,5.40
2022-12-22T13:33:27.000Z,7.30
2022-12-22T13:35:58.845Z,6.47
2022-12-22T13:38:29.352Z,6.97
2022-12-22T13:40:58.077Z,8.60
2022-12-22T13:43:27.497Z,6.80
2022-12-22T13:45:58.952Z,9.10
2022-12-22T13:48:44.609Z,7.87
2022-12-22T13:51:18.932Z,8.20
2022-12-22T13:54:07.824Z,8.27
2022-12-22T13:56:48.049Z,8.03
2022-12-22T13:59:33.587Z,7.20
2022-12-22T14:02:15.029Z,6.80
2022-12-22T14:04:43.903Z,5.93
2022-12-22T14:07:15.371Z,6.57
2022-12-22T14:09:46.706Z,7.30
2022-12-22T14:12:17.431Z,6.57
2022-12-22T14:14:46.147Z,7.97
2022-12-22T14:17:19.439Z,8.03
2022-12-22T14:19:51.193Z,8.37
2022-12-22T14:22:23.141Z,8.70
2022-12-22T14:24:58.953Z,8.90
2022-12-22T14:27:55.820Z,8.40
2022-12-22T14:30:25.799Z,8.57
2022-12-22T14:32:56.414Z,9.40
2022-12-22T14:35:22.947Z,7.40
2022-12-22T14:37:51.726Z,6.40
2022-12-22T14:40:36.079Z,6.10
2022-12-22T14:43:05.956Z,6.67
2022-12-22T14:45:33.266Z,6.90
2022-12-22T14:47:59.684Z,7.20
2022-12-22T14:50:28.343Z,6.87
2022-12-22T14:53:04.948Z,6.90
2022-12-22T14:55:36.118Z,6.70
2022-12-22T14:58:08.813Z,6.40
2022-12-22T15:00:37.104Z,6.00
2022-12-22T15:03:24.477Z,6.90
2022-12-22T15:05:52.333Z,6.23
2022-12-22T15:08:38.745Z,6.50
2022-12-22T15:11:15.334Z,5.80
2022-12-22T15:13:43.311Z,5.90
2022-12-22T15:16:14.570Z,6.47
2022-12-22T15:18:41.804Z,6.80
2022-12-22T15:21:12.341Z,7.70
2022-12-22T15:23:39.054Z,7.73
2022-12-22T15:26:05.892Z,6.73
2022-12-22T15:28:32.857Z,6.10
2022-12-22T15:31:00.740Z,6.30
2022-12-22T15:33:27.277Z,6.60
2022-12-22T15:35:53.724Z,5.23
2022-12-22T15:38:22.579Z,6.10
2022-12-22T15:40:50.057Z,6.30
2022-12-22T15:43:55.081Z,7.50
2022-12-22T15:46:06.688Z,7.60
2022-12-22T15:48:36.278Z,7.73
2022-12-22T15:51:04.333Z,7.67
2022-12-22T15:53:33.476Z,7.37
2022-12-22T15:56:00.910Z,7.07
2022-12-22T15:58:32.970Z,8.00
2022-12-22T16:00:59.431Z,6.90
2022-12-22T16:03:26.017Z,7.57
2022-12-22T16:05:53.233Z,9.70
2022-12-22T16:08:31.290Z,9.97
2022-12-22T16:10:57.847Z,11.40
2022-12-22T16:13:27.164Z,10.97
2022-12-22T16:15:56.308Z,9.60
2022-12-22T16:18:22.929Z,8.80
2022-12-22T16:20:52.584Z,6.20
2022-12-22T16:23:25.906Z,4.20
2022-12-22T16:26:01.030Z,3.17
2022-12-22T16:28:28.923Z,3.00
2022-12-22T16:30:55.353Z,3.07
2022-12-22T16:33:21.846Z,2.67
2022-12-22T16:35:48.527Z,3.40
2022-12-22T16:38:19.082Z,2.63
2022-12-22T16:40:51.596Z,2.13
2022-12-22T16:46:15.478Z,3.27
2022-12-22T16:48:54.056Z,2.67
2022-12-22T16:51:35.641Z,2.37
2022-12-22T16:54:02.261Z,2.50
2022-12-22T16:56:30.691Z,2.20
2022-12-22T16:58:58.179Z,2.40
2022-12-22T17:01:45.505Z,2.30
2022-12-22T17:04:17.672Z,3.70
2022-12-22T17:06:47.797Z,5.43
2022-12-22T17:09:22.891Z,3.60
2022-12-22T17:11:49.465Z,3.30
2022-12-22T17:14:31.390Z,2.63
2022-12-22T17:16:58.626Z,2.60
2022-12-22T17:19:25.090Z,2.20
2022-12-22T17:21:53.351Z,2.60
2022-12-22T17:24:27.773Z,2.10
2022-12-22T17:26:58.131Z,3.00
2022-12-22T17:29:25.536Z,2.50
2022-12-22T17:31:56.147Z,3.70
2022-12-22T17:34:22.625Z,3.40
2022-12-22T17:36:49.673Z,4.20
2022-12-22T17:39:20.220Z,2.93
2022-12-22T17:41:52.272Z,3.30
2022-12-22T17:44:24.167Z,3.20
2022-12-22T17:46:50.763Z,2.70
2022-12-22T17:49:19.791Z,3.07
2022-12-22T17:51:46.503Z,3.80
2022-12-22T17:54:22.352Z,4.80
2022-12-22T17:56:49.203Z,5.07
2022-12-22T17:59:15.625Z,3.60
2022-12-22T18:01:42.212Z,3.20
2022-12-22T18:04:09.864Z,3.77
2022-12-22T18:06:39.467Z,3.30
2022-12-22T18:09:08.111Z,4.40
2022-12-22T18:11:36.362Z,3.50
2022-12-22T18:14:05.594Z,5.17
2022-12-22T18:16:32.195Z,4.30
2022-12-22T18:18:58.621Z,5.80
2022-12-22T18:21:25.419Z,7.00
2022-12-22T18:23:52.229Z,6.20
2022-12-22T18:26:25.347Z,4.40
2022-12-22T18:28:51.937Z,6.10
2022-12-22T18:31:19.033Z,6.73
2022-12-22T18:33:45.767Z,4.80
2022-12-22T18:36:20.773Z,3.50
2022-12-22T18:38:48.325Z,4.00
2022-12-22T18:41:21.007Z,3.80
2022-12-22T18:43:48.098Z,3.53
2022-12-22T18:46:14.624Z,5.70
2022-12-22T18:48:41.171Z,8.43
2022-12-22T18:51:17.702Z,4.90
2022-12-22T18:53:44.492Z,4.30
2022-12-22T18:56:12.600Z,3.20
2022-12-22T18:58:40.288Z,4.30
2022-12-22T19:01:11.854Z,4.00
2022-12-22T19:03:38.284Z,4.97
2022-12-22T19:06:04.954Z,5.23
2022-12-22T19:08:31.634Z,6.70
2022-12-22T19:11:00.311Z,5.43
2022-12-22T19:13:27.165Z,5.37
2022-12-22T19:15:54.587Z,5.53
2022-12-22T19:18:26.611Z,4.60
2022-12-22T19:20:54.558Z,6.80
2022-12-22T19:23:22.899Z,5.87
2022-12-22T19:25:53.191Z,6.40
2022-12-22T19:28:33.605Z,8.10
2022-12-22T19:31:00.427Z,13.90
2022-12-22T19:33:38.523Z,14.03
2022-12-22T19:36:05.696Z,11.60
2022-12-22T19:38:34.416Z,10.97
2022-12-22T19:41:04.207Z,9.60
2022-12-22T19:43:31.080Z,8.70
2022-12-22T19:45:57.829Z,7.00
2022-12-22T19:48:27.014Z,5.93
2022-12-22T19:50:54.220Z,5.63
2022-12-22T19:53:21.704Z,5.30
2022-12-22T19:55:54.494Z,4.40
2022-12-22T19:58:25.544Z,4.60
2022-12-22T20:00:53.092Z,3.90
2022-12-22T20:03:22.752Z,4.57
2022-12-22T20:05:49.686Z,3.97
2022-12-22T20:08:16.788Z,3.70
2022-12-22T20:10:43.937Z,4.63
2022-12-22T20:13:21.665Z,4.20
2022-12-22T20:15:49.217Z,4.60
2022-12-22T20:18:21.717Z,5.60
2022-12-22T20:21:02.921Z,4.50
2022-12-22T20:23:31.276Z,6.23
2022-12-22T20:26:13.736Z,5.30
2022-12-22T20:28:40.614Z,3.97
2022-12-22T20:31:08.825Z,4.50
2022-12-22T20:33:35.292Z,5.00
2022-12-22T20:36:02.784Z,6.90
2022-12-22T20:38:29.113Z,6.40
2022-12-22T20:40:55.539Z,6.60
2022-12-22T20:43:24.359Z,6.23
2022-12-22T20:45:53.192Z,5.70
2022-12-22T20:48:31.593Z,6.03
2022-12-22T20:50:58.020Z,5.97
2022-12-22T20:53:24.529Z,5.03
2022-12-22T20:55:51.122Z,4.10
2022-12-22T20:58:26.918Z,5.17
2022-12-22T21:00:57.550Z,4.67
2022-12-22T21:03:25.263Z,6.33
2022-12-22T21:05:52.309Z,5.33
2022-12-22T21:08:21.927Z,4.40
2022-12-22T21:10:49.404Z,3.50
2022-12-22T21:13:16.994Z,3.50
2022-12-22T21:15:45.658Z,3.20
2022-12-22T21:18:15.860Z,4.00
2022-12-22T21:20:43.204Z,6.27
2022-12-22T21:23:09.783Z,12.87
2022-12-22T21:25:40.635Z,12.20
2022-12-22T21:28:15.991Z,12.53
2022-12-22T21:30:42.466Z,11.53
2022-12-22T21:33:09.170Z,11.00
2022-12-22T21:35:36.962Z,9.17
2022-12-22T21:38:04.292Z,7.70
2022-12-22T21:40:32.295Z,5.70
2022-12-22T21:42:59.151Z,4.53
2022-12-22T21:45:28.149Z,3.93
2022-12-22T21:47:54.584Z,3.67
2022-12-22T21:50:26.962Z,3.73
2022-12-22T21:52:53.599Z,3.67
2022-12-22T21:55:29.484Z,4.57
2022-12-22T21:57:56.510Z,3.83
2022-12-22T22:00:23.983Z,4.90
2022-12-22T22:02:51.353Z,3.73
2022-12-22T22:05:27.501Z,3.97
2022-12-22T22:07:55.339Z,3.23
2022-12-22T22:10:24.946Z,3.20
2022-12-22T22:12:52.235Z,2.90
2022-12-22T22:15:20.274Z,3.20
2022-12-22T22:17:47.152Z,4.00
2022-12-22T22:20:16.655Z,3.27
2022-12-22T22:22:43.462Z,3.30
2022-12-22T22:25:11.062Z,3.97
2022-12-22T22:27:41.824Z,4.57
2022-12-22T22:30:15.619Z,4.23
2022-12-22T22:32:42.650Z,3.90
2022-12-22T22:35:09.683Z,4.87
2022-12-22T22:37:36.214Z,9.80
2022-12-22T22:40:03.072Z,9.67
2022-12-22T22:42:29.441Z,6.27
2022-12-22T22:44:55.842Z,4.60
2022-12-22T22:47:22.260Z,4.67
2022-12-22T22:49:48.736Z,3.37
2022-12-22T22:52:15.607Z,3.07
2022-12-22T22:54:42.065Z,2.50
2022-12-22T22:57:08.504Z,2.67
2022-12-22T22:59:34.958Z,2.63
2022-12-22T23:02:01.505Z,2.63
2022-12-22T23:04:28.100Z,2.43
2022-12-22T23:06:54.569Z,2.80
2022-12-22T23:09:21.078Z,3.57
2022-12-22T23:11:47.470Z,2.90
2022-12-22T23:14:13.861Z,3.20
2022-12-22T23:16:40.262Z,2.60
2022-12-22T23:19:06.788Z,2.27
2022-12-22T23:21:33.593Z,2.47
2022-12-22T23:24:00.120Z,2.40
2022-12-22T23:26:27.051Z,3.37
2022-12-22T23:28:59.281Z,2.77
2022-12-22T23:31:29.439Z,2.37
2022-12-22T23:33:57.116Z,2.50
2022-12-22T23:36:23.656Z,2.10
2022-12-22T23:38:51.740Z,1.80
2022-12-22T23:41:18.887Z,1.83
2022-12-22T23:43:45.389Z,1.70
2022-12-22T23:46:14.292Z,1.77
2022-12-22T23:48:42.057Z,1.90
2022-12-22T23:51:11.256Z,2.00
2022-12-22T23:53:38.601Z,2.27
2022-12-22T23:56:05.558Z,2.07
2022-12-22T23:58:31.919Z,2.37
